Hartsdale, New York
Current Conditions -  °F | °C
As of 10:56 PM on Friday 31 Oct 2014 (Local Time) from KHPN Reporting Station
Light Rain Light Rain  
Wind Chill: 43°   Ceiling: 1800
Heat Index: 47°   Visibility: 10mi
Dew Point: 41°   Wind: 9mph
Humidity: 80%   Direction: 50°NE
Pressure: 29.89"   Gusts: 21mph
Location:  41.01°N, 73.8°W
Report Text: KHPN 010256Z 05008G18KT 10SM -RA OVC018 08/05 A2989 RMK AO2 RAB43 SLP125 P0000 60000 T00830050 55004
Loading
Personal Weather Stations






























Interactive Weather Map
Tropical Storm Tracking
New forecast layout! Learn more

10-Day Weather Forecast

Advertisements
Track Severe Weather on mobile